Time;durP1;ratioP1;P1;durP2;ratioP2;P2;SDS_P1;SDS_P2;PMS_P1;PMS_P2;Temp;Humidity;BMP_temperature;BMP_pressure;BME280_temperature;BME280_humidity;BME280_pressure;Samples;Min_cycle;Max_cycle;Signal;HPM_P1;HPM_P2
2024/01/23 00:01:03;;;;;;;8.27;1.52;;;7.50;99.90;;;;;;5050526;28;20028;-80
2024/01/23 00:03:30;;;;;;;3.22;0.98;;;7.50;99.90;;;;;;5050488;28;20032;-76
2024/01/23 00:05:56;;;;;;;9.90;1.50;;;7.50;99.90;;;;;;5032339;28;20033;-79
2024/01/23 00:08:22;;;;;;;6.57;1.55;;;7.50;99.90;;;;;;5032110;28;20035;-78
2024/01/23 00:10:47;;;;;;;6.05;1.20;;;7.40;99.90;;;;;;5032328;28;20033;-82
2024/01/23 00:13:13;;;;;;;9.23;1.48;;;7.40;99.90;;;;;;5032091;28;20496;-80
2024/01/23 00:15:39;;;;;;;10.65;1.35;;;7.40;99.90;;;;;;5032993;28;20040;-80
2024/01/23 00:18:06;;;;;;;6.93;1.45;;;7.40;99.90;;;;;;5050497;28;20029;-81
2024/01/23 00:20:32;;;;;;;4.00;0.90;;;7.40;99.90;;;;;;5032253;28;20033;-78
2024/01/23 00:22:57;;;;;;;6.10;1.48;;;7.40;99.90;;;;;;5032036;28;20123;-77
2024/01/23 00:25:23;;;;;;;8.20;2.70;;;7.40;99.90;;;;;;5067517;28;20036;-77
2024/01/23 00:27:49;;;;;;;4.70;1.20;;;7.30;99.90;;;;;;5051887;28;20028;-79
2024/01/23 00:30:15;;;;;;;3.53;0.88;;;7.20;99.90;;;;;;5051527;28;20024;-79
2024/01/23 00:32:41;;;;;;;4.05;1.02;;;7.20;99.90;;;;;;5052262;28;20598;-81
2024/01/23 00:35:08;;;;;;;2.30;0.90;;;7.10;99.90;;;;;;5070927;28;20028;-81
2024/01/23 00:37:35;;;;;;;9.55;1.90;;;7.20;99.90;;;;;;5053334;28;20045;-82
2024/01/23 00:40:02;;;;;;;10.13;1.63;;;7.30;99.90;;;;;;5053005;28;20051;-83
2024/01/23 00:42:31;;;;;;;13.98;1.45;;;7.30;99.90;;;;;;5068742;28;20134;-79
2024/01/23 00:44:57;;;;;;;4.43;1.10;;;7.30;99.90;;;;;;5049810;28;20323;-77
2024/01/23 00:47:22;;;;;;;2.80;1.40;;;7.30;99.90;;;;;;5067457;28;20059;-77
2024/01/23 00:49:48;;;;;;;6.57;1.45;;;7.30;99.90;;;;;;5066973;28;20016;-77
2024/01/23 00:52:14;;;;;;;8.82;1.60;;;7.20;99.90;;;;;;5048885;28;20036;-77
2024/01/23 00:54:40;;;;;;;5.30;1.38;;;7.00;99.90;;;;;;5067081;28;20024;-76
2024/01/23 00:57:06;;;;;;;6.25;1.80;;;7.00;99.90;;;;;;5050045;28;20032;-77
2024/01/23 00:59:32;;;;;;;4.32;0.90;;;7.20;99.90;;;;;;5069531;28;20376;-77
2024/01/23 01:01:58;;;;;;;3.75;1.20;;;7.10;99.90;;;;;;5049736;28;20290;-77
2024/01/23 01:04:24;;;;;;;7.22;1.63;;;7.20;99.90;;;;;;5050705;28;20135;-76
2024/01/23 01:06:49;;;;;;;4.95;0.95;;;7.40;99.90;;;;;;5067729;28;20108;-77
2024/01/23 01:09:15;;;;;;;12.40;1.90;;;7.30;99.90;;;;;;5067478;28;20534;-76
2024/01/23 01:11:44;;;;;;;6.60;0.90;;;7.30;99.90;;;;;;5050854;28;20491;-76
2024/01/23 01:14:10;;;;;;;3.47;1.23;;;7.40;99.90;;;;;;5068661;28;20020;-77
2024/01/23 01:16:36;;;;;;;10.20;1.30;;;7.50;99.90;;;;;;5050456;28;20081;-77
2024/01/23 01:19:03;;;;;;;4.65;1.67;;;7.70;99.90;;;;;;5068696;28;20393;-76
2024/01/23 01:21:29;;;;;;;4.88;1.10;;;7.90;99.90;;;;;;5050957;28;20025;-76
2024/01/23 01:23:55;;;;;;;3.25;0.93;;;7.90;99.90;;;;;;5062999;28;20025;-77
2024/01/23 01:26:21;;;;;;;0.82;0.55;;;7.90;99.90;;;;;;5048935;28;20481;-77
2024/01/23 01:28:46;;;;;;;6.35;1.30;;;7.90;99.90;;;;;;5047345;28;20024;-77
2024/01/23 01:31:12;;;;;;;5.75;0.80;;;7.90;99.90;;;;;;5048130;28;20062;-77
2024/01/23 01:33:38;;;;;;;6.43;0.85;;;7.90;99.90;;;;;;5067409;28;20039;-78
2024/01/23 01:36:05;;;;;;;5.55;1.10;;;7.80;99.90;;;;;;5067479;28;20028;-77
2024/01/23 01:38:31;;;;;;;3.95;1.05;;;7.90;99.90;;;;;;5068786;28;20500;-76
2024/01/23 01:40:58;;;;;;;4.78;1.33;;;7.80;99.90;;;;;;5068777;28;20032;-77
2024/01/23 01:43:26;;;;;;;4.53;1.20;;;7.70;99.90;;;;;;5068298;28;20021;-77
2024/01/23 01:46:20;;;;;;;10.18;2.22;;;7.80;99.90;;;;;;5067340;28;20034;-77
2024/01/23 01:48:47;;;;;;;2.55;0.77;;;7.80;99.90;;;;;;5058629;28;20504;-77
2024/01/23 01:51:14;;;;;;;1.67;0.50;;;7.80;99.90;;;;;;5067631;28;20025;-77
2024/01/23 01:53:41;;;;;;;3.70;1.48;;;7.90;99.90;;;;;;5069261;28;20066;-77
2024/01/23 01:56:08;;;;;;;2.95;1.00;;;7.80;99.90;;;;;;5067337;28;20393;-77
2024/01/23 01:58:35;;;;;;;5.90;1.00;;;7.80;99.90;;;;;;5067961;28;20107;-77
2024/01/23 02:01:01;;;;;;;11.30;1.33;;;7.80;99.90;;;;;;5068614;28;20350;-77
2024/01/23 02:03:27;;;;;;;4.60;1.00;;;7.80;99.90;;;;;;5067412;28;20031;-77
2024/01/23 02:05:55;;;;;;;5.93;2.00;;;7.80;99.90;;;;;;5072620;28;20039;-76
2024/01/23 02:08:21;;;;;;;2.97;0.88;;;7.80;99.90;;;;;;5072293;28;20029;-76
2024/01/23 02:10:47;;;;;;;7.25;2.60;;;7.80;99.90;;;;;;5070618;28;20024;-77
2024/01/23 02:13:12;;;;;;;12.40;1.70;;;7.80;99.90;;;;;;5072402;28;20412;-76
2024/01/23 02:15:38;;;;;;;8.13;1.90;;;7.80;99.90;;;;;;5071044;28;20040;-76
2024/01/23 02:18:04;;;;;;;5.70;1.52;;;7.50;99.90;;;;;;5072172;28;20035;-77
2024/01/23 02:20:30;;;;;;;5.50;1.23;;;7.70;99.90;;;;;;5072087;28;20357;-77
2024/01/23 02:22:56;;;;;;;5.95;1.70;;;7.70;99.90;;;;;;5072018;28;20035;-78
2024/01/23 02:25:21;;;;;;;5.65;2.80;;;7.60;99.90;;;;;;5090551;28;20056;-77
2024/01/23 02:27:47;;;;;;;8.43;1.45;;;7.70;99.90;;;;;;5091969;28;20031;-76
2024/01/23 02:30:13;;;;;;;8.48;1.90;;;7.70;99.90;;;;;;5089528;28;20103;-77
2024/01/23 02:32:48;;;;;;;6.53;1.30;;;7.70;99.90;;;;;;5071506;28;20044;-77
2024/01/23 02:35:13;;;;;;;5.55;1.38;;;7.80;99.90;;;;;;5053959;28;20107;-77
2024/01/23 02:37:39;;;;;;;6.50;1.70;;;7.80;99.90;;;;;;5071724;28;20273;-77
2024/01/23 02:40:06;;;;;;;5.03;1.13;;;7.90;99.90;;;;;;5071388;28;20032;-76
2024/01/23 02:42:32;;;;;;;4.10;1.17;;;7.90;99.90;;;;;;5070910;28;20021;-77
2024/01/23 02:44:58;;;;;;;12.32;1.42;;;7.90;99.90;;;;;;5053721;28;20020;-76
2024/01/23 02:47:24;;;;;;;2.63;0.65;;;7.80;99.90;;;;;;5053496;28;20033;-77
2024/01/23 02:49:50;;;;;;;13.60;2.05;;;7.80;99.90;;;;;;5071515;28;20050;-76
2024/01/23 02:52:16;;;;;;;9.00;1.95;;;7.80;99.90;;;;;;5071482;28;20028;-76
2024/01/23 02:54:43;;;;;;;7.72;1.73;;;7.90;99.90;;;;;;5071363;28;20017;-77
2024/01/23 02:57:08;;;;;;;4.80;2.08;;;7.80;99.90;;;;;;5071218;28;20230;-76
2024/01/23 02:59:34;;;;;;;5.57;2.13;;;7.80;99.90;;;;;;5053019;28;20078;-77
2024/01/23 03:02:00;;;;;;;8.10;1.42;;;7.80;99.90;;;;;;5053395;28;20111;-77
2024/01/23 03:04:25;;;;;;;8.40;2.47;;;7.80;99.90;;;;;;5053456;28;20044;-77
2024/01/23 03:06:51;;;;;;;3.97;0.95;;;7.80;99.90;;;;;;5052888;28;20506;-76
2024/01/23 03:09:17;;;;;;;5.38;2.20;;;7.90;99.90;;;;;;5068902;28;20066;-77
2024/01/23 03:11:42;;;;;;;12.93;1.98;;;7.90;99.90;;;;;;5051809;28;20017;-77
2024/01/23 03:14:08;;;;;;;9.70;1.23;;;7.90;99.90;;;;;;5051972;28;20030;-77
2024/01/23 03:16:34;;;;;;;8.95;1.50;;;7.90;99.90;;;;;;5052337;28;20525;-76
2024/01/23 03:19:00;;;;;;;9.95;2.28;;;7.90;99.90;;;;;;5052500;28;20025;-76
2024/01/23 03:21:26;;;;;;;10.13;1.65;;;7.90;99.90;;;;;;5052812;28;20032;-77
2024/01/23 03:23:52;;;;;;;4.35;1.08;;;7.90;99.90;;;;;;5052893;28;20150;-76
2024/01/23 03:26:17;;;;;;;14.07;3.70;;;7.80;99.90;;;;;;5071165;28;20025;-77
2024/01/23 03:28:43;;;;;;;9.75;1.60;;;7.90;99.90;;;;;;5052091;28;20031;-76
2024/01/23 03:31:09;;;;;;;16.13;2.58;;;7.90;99.90;;;;;;5069078;28;20048;-77
2024/01/23 03:33:34;;;;;;;14.20;1.45;;;7.90;99.90;;;;;;5089805;28;20480;-77
2024/01/23 03:36:00;;;;;;;10.05;2.47;;;7.90;99.90;;;;;;5089613;28;20492;-77
2024/01/23 03:38:26;;;;;;;9.20;1.35;;;7.90;99.90;;;;;;5089038;28;20089;-77
2024/01/23 03:40:52;;;;;;;17.33;1.50;;;7.90;99.90;;;;;;5089102;28;20028;-76
2024/01/23 03:43:17;;;;;;;9.05;1.27;;;8.00;99.90;;;;;;5089043;28;20020;-77
2024/01/23 03:45:43;;;;;;;12.65;2.10;;;8.00;99.90;;;;;;5089220;28;20031;-76
2024/01/23 03:48:10;;;;;;;14.48;3.78;;;7.90;99.90;;;;;;5089320;28;20051;-76
2024/01/23 03:50:35;;;;;;;11.65;1.67;;;7.90;99.90;;;;;;5088866;28;20359;-77
2024/01/23 03:53:01;;;;;;;7.95;1.52;;;7.90;99.90;;;;;;5089210;28;20103;-77
2024/01/23 03:55:27;;;;;;;9.60;1.98;;;7.90;99.90;;;;;;5090811;28;20472;-77
2024/01/23 03:57:53;;;;;;;9.27;1.70;;;7.50;99.90;;;;;;5088949;28;20024;-77
2024/01/23 04:00:19;;;;;;;13.13;3.17;;;7.80;99.90;;;;;;5090131;28;20028;-77
2024/01/23 04:02:48;;;;;;;12.38;1.38;;;7.80;99.90;;;;;;5091549;28;20023;-77
2024/01/23 04:05:14;;;;;;;12.30;2.72;;;7.90;99.90;;;;;;5093926;28;20081;-76
2024/01/23 04:07:40;;;;;;;10.50;2.55;;;7.90;99.90;;;;;;5090248;28;20512;-77
2024/01/23 04:10:08;;;;;;;16.90;1.77;;;8.00;99.90;;;;;;5088708;28;20105;-76
2024/01/23 04:12:34;;;;;;;6.75;2.70;;;8.00;99.90;;;;;;5088435;28;20514;-77
2024/01/23 04:15:00;;;;;;;7.70;1.40;;;8.00;99.90;;;;;;5090111;28;20051;-77
2024/01/23 04:17:28;;;;;;;8.93;1.95;;;8.00;99.90;;;;;;5088841;28;20086;-78
2024/01/23 04:19:54;;;;;;;11.52;2.90;;;8.00;99.90;;;;;;5090123;28;20012;-77
2024/01/23 04:22:20;;;;;;;8.10;1.17;;;8.00;99.90;;;;;;5089972;28;20032;-77
2024/01/23 04:24:46;;;;;;;5.03;1.02;;;8.00;99.90;;;;;;5089844;28;20016;-76
2024/01/23 04:28:01;;;;;;;4.45;1.27;;;7.70;99.90;;;;;;5088975;28;20020;-76
2024/01/23 04:31:05;;;;;;;7.78;1.30;;;7.20;99.90;;;;;;5059108;28;20056;-77
2024/01/23 04:33:49;;;;;;;2.78;0.70;;;6.40;99.90;;;;;;5031060;28;20048;-76
2024/01/23 04:36:48;;;;;;;7.35;1.75;;;6.10;99.90;;;;;;5051652;28;20132;-76
2024/01/23 04:39:17;;;;;;;7.97;1.03;;;6.10;99.90;;;;;;4986939;28;20428;-76
2024/01/23 04:41:46;;;;;;;2.28;0.82;;;6.10;99.90;;;;;;4986940;28;20027;-77
2024/01/23 04:44:14;;;;;;;9.20;2.38;;;6.10;99.90;;;;;;5057817;28;20111;-76
2024/01/23 04:46:40;;;;;;;13.95;1.80;;;6.10;99.90;;;;;;5051108;28;20021;-76
2024/01/23 04:49:32;;;;;;;11.82;1.48;;;6.10;99.90;;;;;;5050873;28;20023;-76
2024/01/23 04:51:58;;;;;;;10.30;1.58;;;6.20;99.90;;;;;;5068361;28;20031;-76
2024/01/23 04:54:24;;;;;;;6.82;1.40;;;6.30;99.90;;;;;;5068926;28;20469;-76
2024/01/23 04:56:59;;;;;;;3.60;1.35;;;6.30;99.90;;;;;;5068403;28;20116;-77
2024/01/23 04:59:45;;;;;;;4.90;0.85;;;6.30;99.90;;;;;;5051264;28;20392;-77
2024/01/23 05:02:11;;;;;;;7.68;2.17;;;6.30;99.90;;;;;;5066709;28;20131;-76
2024/01/23 05:05:09;;;;;;;4.93;0.98;;;6.30;99.90;;;;;;5065416;28;20077;-77
2024/01/23 05:07:35;;;;;;;15.52;3.20;;;6.30;99.90;;;;;;5046705;28;20013;-76
2024/01/23 05:10:04;;;;;;;15.82;1.73;;;6.40;99.90;;;;;;5045358;28;20108;-76
2024/01/23 05:12:30;;;;;;;7.88;1.13;;;6.40;99.90;;;;;;5028187;28;20025;-76
2024/01/23 05:16:30;;;;;;;12.95;1.65;;;6.50;99.90;;;;;;5046548;28;20029;-76
2024/01/23 05:18:48;;;;;;;18.50;4.00;;;6.50;99.90;;;;;;4925798;29;20027;-76
2024/01/23 05:21:23;;;;;;;2.60;1.45;;;6.50;99.90;;;;;;4953217;28;20031;-77
2024/01/23 05:28:20;;;;;;;10.55;2.35;;;6.60;99.90;;;;;;5024612;28;20306;-74
2024/01/23 05:31:29;;;;;;;8.98;1.67;;;6.70;99.90;;;;;;5035493;28;20083;-78
2024/01/23 05:34:25;;;;;;;10.00;1.35;;;6.70;99.90;;;;;;5045143;28;20235;-73
2024/01/23 05:37:19;;;;;;;5.22;1.77;;;6.70;99.90;;;;;;5041096;28;20186;-74
2024/01/23 05:40:04;;;;;;;11.10;2.00;;;6.80;99.90;;;;;;5064280;28;20044;-74
2024/01/23 05:42:30;;;;;;;4.55;2.33;;;6.60;99.90;;;;;;5073147;28;20024;-74
2024/01/23 05:44:56;;;;;;;5.00;1.45;;;6.40;99.90;;;;;;5074074;28;20024;-74
2024/01/23 05:47:22;;;;;;;1.33;0.50;;;6.30;99.90;;;;;;5075152;28;20103;-74
2024/01/23 05:50:38;;;;;;;4.50;0.90;;;6.10;99.90;;;;;;5073954;28;20025;-74
2024/01/23 05:53:59;;;;;;;5.43;1.55;;;6.00;99.90;;;;;;4992392;28;20033;-74
2024/01/23 05:56:34;;;;;;;1.90;0.88;;;5.90;99.90;;;;;;4991356;28;20269;-77
2024/01/23 06:00:08;;;;;;;;;;;;;;;;;;;;;
2024/01/23 06:02:29;;;;;;;16.90;1.77;;;5.60;99.90;;;;;;5001434;28;20026;-74
2024/01/23 06:04:55;;;;;;;14.38;1.30;;;5.50;99.90;;;;;;5074959;28;20026;-76
2024/01/23 06:07:21;;;;;;;7.50;2.53;;;5.40;99.90;;;;;;5075151;28;20035;-74
2024/01/23 06:10:02;;;;;;;13.35;2.28;;;5.40;99.90;;;;;;5074939;28;20044;-76
2024/01/23 06:12:41;;;;;;;6.15;1.40;;;5.50;99.90;;;;;;5075643;28;20665;-75
2024/01/23 06:15:16;;;;;;;11.32;1.67;;;5.60;99.90;;;;;;5075270;28;20044;-74
2024/01/23 06:18:20;;;;;;;15.20;1.48;;;5.90;99.90;;;;;;5076076;28;20035;-75
2024/01/23 06:24:23;;;;;;;11.77;2.60;;;5.90;99.90;;;;;;4990002;28;20027;-75
2024/01/23 06:30:47;;;;;;;4.22;0.47;;;6.30;99.90;;;;;;5015688;28;20486;-76
2024/01/23 06:33:13;;;;;;;12.43;1.90;;;6.40;99.90;;;;;;5058848;28;20099;-74
2024/01/23 06:35:39;;;;;;;10.05;1.20;;;6.50;99.90;;;;;;5074811;28;20515;-76
2024/01/23 06:38:05;;;;;;;11.52;2.25;;;6.50;99.90;;;;;;5074113;28;20076;-78
2024/01/23 06:40:30;;;;;;;8.45;1.20;;;6.60;99.90;;;;;;5074933;28;20059;-75
2024/01/23 06:42:56;;;;;;;14.13;2.53;;;6.50;99.90;;;;;;5074429;28;20024;-75
2024/01/23 06:46:20;;;;;;;8.75;2.20;;;6.60;99.90;;;;;;5074812;28;20021;-76
2024/01/23 06:53:13;;;;;;;17.17;2.17;;;6.10;99.90;;;;;;4989376;28;20047;-78
2024/01/23 06:55:20;;;;;;;11.60;3.17;;;6.20;99.90;;;;;;4977590;28;20527;-73
2024/01/23 07:02:10;;;;;;;;;;;;;;;;;;;;;
2024/01/23 07:04:40;;;;;;;13.35;1.80;;;6.30;99.90;;;;;;5055168;28;20028;-75
2024/01/23 07:07:09;;;;;;;15.50;2.20;;;6.40;99.90;;;;;;5071372;28;20481;-76
2024/01/23 07:10:16;;;;;;;13.75;2.03;;;6.40;99.90;;;;;;5070898;28;20112;-74
2024/01/23 07:13:03;;;;;;;7.57;2.10;;;6.40;99.90;;;;;;5070276;28;20028;-75
2024/01/23 07:15:29;;;;;;;6.95;1.98;;;6.50;99.90;;;;;;5070821;28;20017;-74
2024/01/23 07:18:41;;;;;;;16.48;1.60;;;6.50;99.90;;;;;;5071190;28;20021;-78
2024/01/23 07:21:26;;;;;;;13.18;1.55;;;6.40;99.90;;;;;;5070627;28;20025;-76
2024/01/23 07:24:02;;;;;;;13.23;1.48;;;6.20;99.90;;;;;;5071727;28;20036;-74
2024/01/23 07:26:47;;;;;;;11.50;1.90;;;6.10;99.90;;;;;;5083355;28;20073;-74
2024/01/23 07:33:44;;;;;;;13.43;1.60;;;6.10;99.90;;;;;;5036652;28;20123;-73
2024/01/23 07:36:38;;;;;;;8.05;0.93;;;6.10;99.90;;;;;;4989609;28;20050;-73
2024/01/23 07:39:32;;;;;;;;;;;;;;;;;;;;;
2024/01/23 07:42:07;;;;;;;8.93;1.10;;;6.20;99.90;;;;;;5071871;28;20231;-78
2024/01/23 07:44:39;;;;;;;10.18;1.55;;;6.20;99.90;;;;;;5053560;28;20029;-74
2024/01/23 07:47:07;;;;;;;9.35;2.42;;;6.20;99.90;;;;;;5071197;28;20024;-74
2024/01/23 07:49:33;;;;;;;8.38;1.73;;;6.30;99.90;;;;;;5071368;28;20016;-74
2024/01/23 07:51:58;;;;;;;6.90;1.73;;;6.40;99.90;;;;;;5069917;28;20036;-74
2024/01/23 07:54:24;;;;;;;8.73;1.63;;;6.60;99.90;;;;;;5053555;28;20016;-74
2024/01/23 07:56:52;;;;;;;7.93;1.70;;;6.80;99.90;;;;;;5079881;28;20056;-80
2024/01/23 07:59:18;;;;;;;10.88;1.95;;;6.90;99.90;;;;;;5075329;28;20029;-79
2024/01/23 08:01:44;;;;;;;15.55;2.30;;;7.00;99.90;;;;;;5078665;28;20102;-76
2024/01/23 08:04:12;;;;;;;8.65;2.55;;;7.00;99.90;;;;;;5072901;28;20103;-76
2024/01/23 08:06:38;;;;;;;13.50;1.60;;;7.10;99.90;;;;;;5052640;28;20048;-75
2024/01/23 08:09:06;;;;;;;11.07;1.80;;;7.20;99.90;;;;;;5052414;28;20071;-77
2024/01/23 08:11:32;;;;;;;9.38;2.25;;;7.20;99.90;;;;;;5070026;28;20025;-75
2024/01/23 08:13:58;;;;;;;7.20;1.70;;;7.30;99.90;;;;;;5070486;28;20500;-76
2024/01/23 08:16:27;;;;;;;8.88;2.85;;;7.30;99.90;;;;;;5052500;28;20036;-77
2024/01/23 08:18:53;;;;;;;15.30;1.90;;;7.20;99.90;;;;;;5042780;28;20025;-77
2024/01/23 08:21:18;;;;;;;11.63;2.15;;;7.20;99.90;;;;;;5033039;28;20428;-77
2024/01/23 08:23:44;;;;;;;13.40;2.08;;;7.20;99.90;;;;;;5032543;28;20052;-77
2024/01/23 08:26:28;;;;;;;10.65;1.20;;;7.10;99.90;;;;;;5032528;28;20132;-77
2024/01/23 08:28:56;;;;;;;10.05;1.73;;;7.20;99.90;;;;;;5050548;28;20048;-77
2024/01/23 08:31:22;;;;;;;8.30;1.90;;;7.10;99.90;;;;;;5047227;28;20083;-77
2024/01/23 08:33:48;;;;;;;8.18;1.63;;;7.10;99.90;;;;;;5069411;28;20056;-77
2024/01/23 08:36:14;;;;;;;5.00;1.52;;;7.00;99.90;;;;;;5070215;28;20036;-78
2024/01/23 08:38:43;;;;;;;7.25;1.95;;;7.10;99.90;;;;;;5069281;28;20025;-77
2024/01/23 08:41:10;;;;;;;12.63;1.30;;;7.20;99.90;;;;;;5068779;28;20058;-77
2024/01/23 08:43:35;;;;;;;8.75;1.98;;;7.40;99.90;;;;;;5068733;28;20040;-77
2024/01/23 08:46:01;;;;;;;9.75;1.60;;;7.70;99.90;;;;;;5069958;28;20025;-76
2024/01/23 08:48:28;;;;;;;9.70;1.48;;;7.90;99.90;;;;;;5070066;28;20028;-77
2024/01/23 08:50:54;;;;;;;6.82;1.25;;;8.10;99.90;;;;;;5068764;28;20028;-77
2024/01/23 08:53:19;;;;;;;5.60;1.52;;;8.10;99.90;;;;;;5069736;28;20131;-77
2024/01/23 08:55:46;;;;;;;8.93;1.77;;;8.00;99.90;;;;;;5068321;28;20032;-76
2024/01/23 08:58:16;;;;;;;13.32;1.73;;;7.80;99.90;;;;;;5069611;28;20032;-77
2024/01/23 09:00:41;;;;;;;21.65;3.25;;;7.80;99.90;;;;;;5068382;28;20511;-76
2024/01/23 09:03:07;;;;;;;9.27;1.58;;;7.70;99.90;;;;;;5068219;28;20068;-76
2024/01/23 09:05:33;;;;;;;11.30;1.63;;;7.70;99.90;;;;;;5068254;28;20024;-76
2024/01/23 09:07:58;;;;;;;6.93;1.45;;;7.70;99.90;;;;;;5068513;28;20036;-77
2024/01/23 09:10:24;;;;;;;9.25;3.05;;;7.70;99.90;;;;;;5068576;28;20028;-77
2024/01/23 09:12:50;;;;;;;5.60;1.98;;;7.80;99.90;;;;;;5067602;28;20021;-77
2024/01/23 09:15:15;;;;;;;15.02;1.90;;;7.80;99.90;;;;;;5068172;28;20564;-77
2024/01/23 09:17:41;;;;;;;11.68;2.45;;;7.80;99.90;;;;;;5069668;28;20020;-77
2024/01/23 09:20:07;;;;;;;6.38;1.17;;;7.90;99.90;;;;;;5088478;28;20177;-78
2024/01/23 09:22:33;;;;;;;4.63;1.10;;;8.00;99.90;;;;;;5088692;28;20032;-77
2024/01/23 09:25:02;;;;;;;9.48;1.90;;;8.10;99.90;;;;;;5088074;28;20028;-77
2024/01/23 09:27:27;;;;;;;11.65;2.67;;;8.20;99.90;;;;;;5088195;28;20165;-78
2024/01/23 09:29:53;;;;;;;9.25;1.42;;;8.40;99.90;;;;;;5089146;28;20111;-77
2024/01/23 09:32:19;;;;;;;9.43;1.80;;;8.40;99.90;;;;;;5074709;28;20057;-77
2024/01/23 09:34:47;;;;;;;11.13;2.17;;;8.60;99.90;;;;;;5051444;28;20030;-77
2024/01/23 09:37:13;;;;;;;9.93;1.65;;;8.60;99.90;;;;;;5051251;28;20032;-76
2024/01/23 09:39:39;;;;;;;14.48;2.55;;;8.60;99.90;;;;;;5051366;28;20020;-76
2024/01/23 09:42:05;;;;;;;14.32;2.10;;;8.70;99.90;;;;;;5050665;28;20051;-77
2024/01/23 09:44:31;;;;;;;9.65;2.40;;;8.80;99.90;;;;;;5051144;28;20097;-76
2024/01/23 09:46:57;;;;;;;14.35;1.63;;;8.80;99.90;;;;;;5051506;28;20025;-76
2024/01/23 09:49:24;;;;;;;6.20;1.52;;;8.00;99.90;;;;;;5069356;28;20622;-77
2024/01/23 09:51:51;;;;;;;9.18;2.50;;;8.90;99.90;;;;;;5069443;28;20390;-83
2024/01/23 09:54:17;;;;;;;12.25;2.50;;;9.00;99.90;;;;;;5051500;28;20055;-77
2024/01/23 09:56:43;;;;;;;13.82;1.95;;;9.10;99.90;;;;;;5069146;28;20119;-77
2024/01/23 09:59:09;;;;;;;12.20;2.03;;;9.10;99.90;;;;;;5051143;28;20033;-77
2024/01/23 10:01:36;;;;;;;8.93;2.28;;;9.30;99.90;;;;;;5051323;28;20142;-76
2024/01/23 10:04:04;;;;;;;9.45;2.17;;;9.50;99.90;;;;;;5051257;28;20218;-76
2024/01/23 10:06:31;;;;;;;13.55;2.00;;;9.40;99.90;;;;;;5051253;28;20048;-76
2024/01/23 10:08:56;;;;;;;10.35;1.95;;;8.50;99.90;;;;;;5050977;28;20021;-76
2024/01/23 10:11:22;;;;;;;10.75;1.60;;;9.10;99.90;;;;;;5068432;28;20488;-77
2024/01/23 10:13:48;;;;;;;8.02;1.83;;;9.00;99.90;;;;;;5068991;28;20276;-77
2024/01/23 10:16:17;;;;;;;9.07;1.70;;;9.00;99.90;;;;;;5050778;28;20033;-77
2024/01/23 10:18:46;;;;;;;14.90;2.10;;;9.10;99.90;;;;;;5059924;28;20021;-77
2024/01/23 10:21:12;;;;;;;;;;;9.40;99.90;;;;;;5048457;28;20117;-77
2024/01/23 10:23:38;;;;;;;14.52;2.28;;;8.40;99.90;;;;;;5030899;28;19995;-77
2024/01/23 10:26:10;;;;;;;7.10;1.77;;;9.90;99.90;;;;;;5052020;28;20234;-77
2024/01/23 10:28:36;;;;;;;7.38;2.90;;;10.00;99.90;;;;;;5054863;28;20063;-74
2024/01/23 10:31:02;;;;;;;6.30;1.70;;;9.60;99.90;;;;;;5073641;28;20071;-76
2024/01/23 10:33:28;;;;;;;5.10;1.63;;;9.30;99.90;;;;;;5073249;28;20031;-77
2024/01/23 10:35:55;;;;;;;10.70;1.25;;;9.00;99.90;;;;;;5051910;28;20036;-77
2024/01/23 10:38:21;;;;;;;9.18;1.95;;;8.90;99.90;;;;;;5056661;28;20287;-77
2024/01/23 10:40:47;;;;;;;9.90;1.73;;;8.80;99.90;;;;;;5070204;28;20168;-78
2024/01/23 10:43:15;;;;;;;9.18;2.03;;;8.80;99.90;;;;;;5070125;28;20260;-78
2024/01/23 10:45:52;;;;;;;9.68;1.90;;;8.90;99.90;;;;;;5051076;28;20045;-78
2024/01/23 10:48:20;;;;;;;18.92;2.67;;;8.80;99.90;;;;;;5040080;28;20021;-78
2024/01/23 10:50:52;;;;;;;12.00;1.80;;;9.00;99.90;;;;;;5044724;28;20032;-77
2024/01/23 10:53:20;;;;;;;14.65;1.98;;;9.00;99.90;;;;;;5059637;28;20025;-75
2024/01/23 10:55:46;;;;;;;6.53;1.63;;;9.10;99.90;;;;;;5039164;28;20427;-75
2024/01/23 10:58:35;;;;;;;9.70;1.88;;;9.20;99.90;;;;;;5064863;28;20071;-75
2024/01/23 11:01:03;;;;;;;8.13;1.52;;;9.20;99.90;;;;;;5062896;28;20469;-75
2024/01/23 11:03:32;;;;;;;12.90;2.00;;;9.40;99.90;;;;;;5033615;28;20386;-76
2024/01/23 11:06:04;;;;;;;13.65;1.73;;;9.60;99.90;;;;;;5050048;28;20211;-76
2024/01/23 11:08:33;;;;;;;10.25;2.35;;;9.60;99.90;;;;;;5033263;28;20040;-75
2024/01/23 11:11:29;;;;;;;18.03;1.90;;;9.60;99.90;;;;;;5070788;28;20020;-79
2024/01/23 11:14:04;;;;;;;10.07;2.65;;;9.60;99.90;;;;;;5051761;28;20755;-78
2024/01/23 11:16:30;;;;;;;8.30;1.75;;;9.70;99.90;;;;;;5074249;28;20105;-76
2024/01/23 11:18:55;;;;;;;11.90;3.22;;;9.70;99.90;;;;;;5052070;28;20052;-77
2024/01/23 11:21:23;;;;;;;9.88;2.67;;;9.70;99.90;;;;;;5051060;28;20473;-77
2024/01/23 11:23:59;;;;;;;13.52;3.00;;;10.00;99.90;;;;;;5035996;28;20029;-77
2024/01/23 11:26:26;;;;;;;7.38;2.58;;;10.00;99.90;;;;;;5053022;28;20107;-78
2024/01/23 11:28:58;;;;;;;11.60;1.75;;;10.10;99.90;;;;;;5053357;28;20478;-77
2024/01/23 11:31:35;;;;;;;10.50;1.75;;;10.10;99.90;;;;;;5070304;28;20084;-76
2024/01/23 11:34:39;;;;;;;12.93;2.80;;;9.90;99.90;;;;;;5051571;28;20033;-76
2024/01/23 11:37:43;;;;;;;7.82;1.80;;;9.80;99.90;;;;;;4987063;28;20034;-77
2024/01/23 11:40:33;;;;;;;3.88;0.90;;;10.00;99.90;;;;;;4987614;28;20038;-76
2024/01/23 11:43:06;;;;;;;10.45;2.95;;;9.90;99.90;;;;;;4970518;28;20513;-75
2024/01/23 11:45:38;;;;;;;9.02;1.33;;;9.80;99.90;;;;;;5027050;28;20037;-76
2024/01/23 11:48:11;;;;;;;8.07;1.85;;;10.00;99.90;;;;;;5051048;28;20028;-76
2024/01/23 11:50:38;;;;;;;11.23;1.33;;;10.20;99.90;;;;;;5050903;28;20112;-76
2024/01/23 11:53:04;;;;;;;10.25;2.55;;;10.40;99.90;;;;;;5032802;28;20108;-76
2024/01/23 11:55:30;;;;;;;7.93;1.67;;;10.30;99.90;;;;;;5050657;28;20055;-77
2024/01/23 11:58:04;;;;;;;9.52;2.47;;;10.20;99.90;;;;;;5050535;28;20021;-75
2024/01/23 12:00:30;;;;;;;14.38;2.33;;;10.00;99.90;;;;;;5032886;28;20385;-77
2024/01/23 12:03:20;;;;;;;9.95;1.75;;;10.10;99.90;;;;;;5050776;28;20021;-76
2024/01/23 12:05:47;;;;;;;8.95;1.38;;;10.00;99.90;;;;;;5050669;28;20508;-76
2024/01/23 12:08:16;;;;;;;4.25;1.02;;;9.70;99.90;;;;;;5050327;28;20017;-76
2024/01/23 12:11:16;;;;;;;11.93;2.10;;;10.50;99.90;;;;;;5032577;28;20056;-77
2024/01/23 12:13:54;;;;;;;12.10;2.58;;;9.70;99.90;;;;;;5050089;28;20060;-76
2024/01/23 12:16:25;;;;;;;8.93;1.58;;;9.70;99.90;;;;;;5032440;28;20063;-76
2024/01/23 12:18:57;;;;;;;13.65;2.83;;;9.80;99.90;;;;;;5032814;28;20033;-75
2024/01/23 12:21:26;;;;;;;8.00;1.83;;;9.60;99.90;;;;;;5050427;28;20083;-75
2024/01/23 12:23:52;;;;;;;7.18;2.50;;;9.60;99.90;;;;;;5070230;28;20112;-78
2024/01/23 12:26:19;;;;;;;10.27;2.65;;;9.70;99.90;;;;;;5051749;28;20111;-76
2024/01/23 12:28:46;;;;;;;9.20;1.58;;;9.80;99.90;;;;;;5070095;28;20125;-76
2024/01/23 12:31:15;;;;;;;8.40;1.20;;;9.70;99.90;;;;;;5060231;28;20052;-76
2024/01/23 12:34:05;;;;;;;11.32;1.02;;;9.70;99.90;;;;;;5090381;28;20031;-76
2024/01/23 12:36:30;;;;;;;7.93;1.58;;;9.50;99.90;;;;;;5089691;28;20419;-75
2024/01/23 12:38:56;;;;;;;11.73;1.95;;;9.50;99.90;;;;;;5090465;28;20030;-76
2024/01/23 12:41:22;;;;;;;11.18;2.25;;;9.50;99.90;;;;;;5088520;28;20032;-76
2024/01/23 12:43:51;;;;;;;11.63;1.35;;;9.40;99.90;;;;;;5088950;28;20488;-76
2024/01/23 12:46:51;;;;;;;9.82;2.33;;;9.30;99.90;;;;;;5088888;28;20123;-76
2024/01/23 12:49:20;;;;;;;8.95;2.60;;;9.30;99.90;;;;;;5083801;28;20043;-76
2024/01/23 12:51:49;;;;;;;8.75;1.33;;;9.20;99.90;;;;;;5090167;28;20028;-75
2024/01/23 12:54:15;;;;;;;5.53;1.10;;;9.20;99.90;;;;;;5090101;28;20023;-75
2024/01/23 12:56:42;;;;;;;10.10;1.88;;;9.10;99.90;;;;;;5088516;28;20036;-74
2024/01/23 12:59:08;;;;;;;15.25;2.42;;;9.10;99.90;;;;;;5091188;28;20384;-77
2024/01/23 13:01:34;;;;;;;12.75;2.60;;;9.10;99.90;;;;;;5090291;28;20024;-76
2024/01/23 13:04:00;;;;;;;8.98;1.77;;;9.10;99.90;;;;;;5089826;28;20085;-76
2024/01/23 13:06:26;;;;;;;7.32;1.52;;;9.10;99.90;;;;;;5089758;28;20024;-75
2024/01/23 13:08:51;;;;;;;7.15;1.95;;;9.10;99.90;;;;;;5090137;28;20016;-76
2024/01/23 13:11:17;;;;;;;10.50;2.10;;;9.10;99.90;;;;;;5089408;28;20058;-75
2024/01/23 13:13:43;;;;;;;13.38;2.40;;;9.10;99.90;;;;;;5089851;28;20020;-75
2024/01/23 13:16:09;;;;;;;8.60;1.98;;;9.10;99.90;;;;;;5089619;28;20028;-75
2024/01/23 13:18:34;;;;;;;10.20;2.33;;;9.10;99.90;;;;;;5089645;28;20024;-75
2024/01/23 13:21:00;;;;;;;5.88;1.80;;;9.10;99.90;;;;;;5088346;28;20035;-75
2024/01/23 13:23:26;;;;;;;5.70;1.20;;;9.10;99.90;;;;;;5088186;28;20085;-76
2024/01/23 13:25:52;;;;;;;12.85;2.13;;;9.20;99.90;;;;;;5089581;28;20476;-77
2024/01/23 13:28:18;;;;;;;9.50;1.95;;;9.20;99.90;;;;;;5087840;28;20020;-76
2024/01/23 13:30:45;;;;;;;9.68;2.00;;;9.20;99.90;;;;;;5086371;28;20086;-77
2024/01/23 13:33:11;;;;;;;7.40;1.27;;;9.20;99.90;;;;;;5051326;28;20023;-77
2024/01/23 13:35:36;;;;;;;7.32;1.60;;;9.20;99.90;;;;;;5069168;28;20029;-78
2024/01/23 13:38:03;;;;;;;7.68;1.30;;;9.20;99.90;;;;;;5069058;28;20032;-77